createdAt,value
2023-01-21T00:00:45.726Z,15.98
2023-01-21T00:03:47.938Z,17.17
2023-01-21T00:06:50.032Z,18.45
2023-01-21T00:09:51.845Z,16.98
2023-01-21T00:12:57.278Z,18.30
2023-01-21T00:15:59.499Z,18.45
2023-01-21T00:19:01.635Z,18.55
2023-01-21T00:22:04.655Z,19.20
2023-01-21T00:25:07.549Z,17.95
2023-01-21T00:28:11.060Z,17.10
2023-01-21T00:31:13.259Z,16.42
2023-01-21T00:34:19.635Z,15.65
2023-01-21T00:37:21.461Z,17.25
2023-01-21T00:40:23.341Z,16.20
2023-01-21T00:43:33.913Z,17.20
2023-01-21T00:46:36.020Z,16.75
2023-01-21T00:49:37.878Z,17.55
2023-01-21T00:52:39.656Z,17.00
2023-01-21T00:55:42.024Z,17.75
2023-01-21T00:58:47.739Z,17.45
2023-01-21T01:01:49.760Z,18.42
2023-01-21T01:04:51.575Z,19.52
2023-01-21T01:07:54.407Z,19.38
2023-01-21T01:10:56.463Z,18.73
2023-01-21T01:14:01.363Z,20.15
2023-01-21T01:17:03.214Z,19.92
2023-01-21T01:20:06.113Z,18.73
2023-01-21T01:23:07.864Z,19.20
2023-01-21T01:26:11.710Z,19.55
2023-01-21T01:29:15.117Z,17.80
2023-01-21T01:32:16.973Z,17.83
2023-01-21T01:35:18.715Z,18.83
2023-01-21T01:38:22.356Z,16.80
2023-01-21T01:41:26.688Z,17.35
2023-01-21T01:45:05.062Z,16.75
2023-01-21T01:48:11.937Z,17.10
2023-01-21T01:51:16.949Z,16.63
2023-01-21T01:54:23.225Z,16.67
2023-01-21T01:57:34.861Z,17.17
2023-01-21T02:00:36.933Z,15.10
2023-01-21T02:03:44.365Z,15.20
2023-01-21T02:06:48.194Z,15.88
2023-01-21T02:09:50.949Z,15.10
2023-01-21T02:12:53.372Z,15.90
2023-01-21T02:16:12.302Z,15.48
2023-01-21T02:20:07.099Z,15.48
2023-01-21T02:23:17.298Z,15.43
2023-01-21T02:26:48.102Z,17.17
2023-01-21T02:30:25.670Z,16.40
2023-01-21T02:33:53.502Z,18.10
2023-01-21T02:37:05.192Z,15.80
2023-01-21T02:40:13.653Z,17.20
2023-01-21T02:43:24.880Z,17.42
2023-01-21T02:46:33.891Z,17.08
2023-01-21T02:52:44.311Z,15.65
2023-01-21T02:55:46.117Z,15.93
2023-01-21T02:58:51.630Z,16.33
2023-01-21T03:02:03.598Z,18.02
2023-01-21T03:05:16.799Z,15.75
2023-01-21T03:08:21.988Z,16.77
2023-01-21T03:11:24.198Z,16.83
2023-01-21T03:14:32.353Z,16.38
2023-01-21T03:17:40.141Z,13.10
2023-01-21T03:20:47.205Z,18.77
2023-01-21T03:23:52.844Z,17.23
2023-01-21T03:26:55.934Z,17.20
2023-01-21T03:30:02.846Z,17.17
2023-01-21T03:33:06.771Z,17.35
2023-01-21T03:36:16.519Z,18.38
2023-01-21T03:39:27.119Z,18.40
2023-01-21T03:42:30.108Z,18.05
2023-01-21T03:45:37.391Z,18.13
2023-01-21T03:48:44.705Z,18.38
2023-01-21T03:51:52.875Z,20.17
2023-01-21T03:54:54.881Z,19.00
2023-01-21T03:57:56.931Z,18.55
2023-01-21T04:00:58.761Z,18.23
2023-01-21T04:04:01.823Z,19.92
2023-01-21T04:07:05.209Z,19.63
2023-01-21T04:10:11.140Z,18.20
2023-01-21T04:13:12.923Z,18.35
2023-01-21T04:16:15.553Z,19.25
2023-01-21T04:19:17.326Z,18.27
2023-01-21T04:22:21.234Z,17.95
2023-01-21T04:25:23.042Z,19.70
2023-01-21T04:28:26.946Z,18.63
2023-01-21T04:31:29.238Z,18.13
2023-01-21T04:34:31.252Z,17.55
2023-01-21T04:37:36.788Z,17.88
2023-01-21T04:40:38.750Z,18.52
2023-01-21T04:43:41.563Z,17.65
2023-01-21T04:46:43.336Z,18.33
2023-01-21T04:49:45.103Z,18.23
2023-01-21T04:52:49.108Z,19.42
2023-01-21T04:55:52.537Z,19.27
2023-01-21T04:58:54.341Z,19.42
2023-01-21T05:01:56.441Z,18.38
2023-01-21T05:04:58.274Z,18.25
2023-01-21T05:08:01.691Z,17.08
2023-01-21T05:11:03.541Z,18.10
2023-01-21T05:14:05.611Z,17.60
2023-01-21T05:17:07.449Z,16.88
2023-01-21T05:20:10.681Z,16.83
2023-01-21T05:23:13.905Z,17.17
2023-01-21T05:26:15.923Z,16.83
2023-01-21T05:29:19.158Z,15.30
2023-01-21T05:32:23.777Z,14.82
2023-01-21T05:35:25.589Z,15.73
2023-01-21T05:38:29.724Z,14.02
2023-01-21T05:41:32.145Z,14.88
2023-01-21T05:44:34.184Z,14.80
2023-01-21T05:47:37.681Z,13.27
2023-01-21T05:50:39.756Z,13.65
2023-01-21T05:53:44.509Z,14.70
2023-01-21T05:56:46.314Z,14.57
2023-01-21T05:59:48.446Z,13.93
2023-01-21T06:02:51.716Z,13.80
2023-01-21T06:05:56.284Z,15.57
2023-01-21T06:09:01.997Z,14.73
2023-01-21T06:12:05.009Z,13.55
2023-01-21T06:15:08.131Z,14.93
2023-01-21T06:18:14.330Z,13.93
2023-01-21T06:21:16.423Z,14.57
2023-01-21T06:24:24.531Z,12.98
2023-01-21T06:27:26.316Z,10.88
2023-01-21T06:30:28.404Z,14.55
2023-01-21T06:33:32.553Z,14.75
2023-01-21T06:36:36.063Z,13.77
2023-01-21T06:39:39.521Z,14.70
2023-01-21T06:42:43.929Z,13.95
2023-01-21T06:45:46.509Z,14.18
2023-01-21T06:48:48.343Z,14.32
2023-01-21T06:51:50.649Z,13.25
2023-01-21T06:54:53.846Z,13.55
2023-01-21T06:57:55.678Z,13.00
2023-01-21T07:00:57.936Z,12.95
2023-01-21T07:04:02.057Z,13.80
2023-01-21T07:07:03.815Z,12.85
2023-01-21T07:10:08.009Z,12.15
2023-01-21T07:13:11.896Z,12.70
2023-01-21T07:16:13.793Z,13.32
2023-01-21T07:19:16.041Z,14.10
2023-01-21T07:22:17.795Z,13.07
2023-01-21T07:25:21.198Z,14.18
2023-01-21T07:28:23.298Z,12.73
2023-01-21T07:31:28.146Z,13.85
2023-01-21T07:34:29.976Z,14.75
2023-01-21T07:37:32.520Z,23.25
2023-01-21T07:40:38.286Z,14.48
2023-01-21T07:43:40.130Z,12.60
2023-01-21T07:46:44.788Z,13.85
2023-01-21T07:49:50.111Z,12.38
2023-01-21T07:52:53.050Z,13.32
2023-01-21T07:55:56.513Z,11.63
2023-01-21T07:58:58.348Z,12.75
2023-01-21T08:02:00.417Z,12.30
2023-01-21T08:05:02.586Z,12.90
2023-01-21T08:08:05.134Z,12.68
2023-01-21T08:11:08.383Z,12.77
2023-01-21T08:14:10.497Z,12.65
2023-01-21T08:17:12.921Z,12.50
2023-01-21T08:20:15.084Z,12.68
2023-01-21T08:23:17.159Z,10.20
2023-01-21T08:26:22.282Z,12.18
2023-01-21T08:29:25.604Z,12.05
2023-01-21T08:32:32.734Z,15.82
2023-01-21T08:35:34.702Z,11.38
2023-01-21T08:38:38.697Z,13.07
2023-01-21T08:41:43.115Z,11.55
2023-01-21T08:44:44.906Z,11.82
2023-01-21T08:47:47.021Z,11.68
2023-01-21T08:50:51.430Z,11.20
2023-01-21T08:53:55.287Z,12.50
2023-01-21T08:56:58.480Z,12.00
2023-01-21T09:00:00.320Z,12.20
2023-01-21T09:03:02.101Z,11.48
2023-01-21T09:06:05.083Z,11.85
2023-01-21T09:09:06.893Z,12.85
2023-01-21T09:12:11.381Z,11.63
2023-01-21T09:15:14.295Z,12.63
2023-01-21T09:18:18.756Z,11.32
2023-01-21T09:21:20.554Z,12.82
2023-01-21T09:24:22.381Z,13.07
2023-01-21T09:27:25.583Z,12.00
2023-01-21T09:30:27.426Z,12.60
2023-01-21T09:33:30.780Z,11.77
2023-01-21T09:36:34.845Z,12.82
2023-01-21T09:39:36.926Z,11.23
2023-01-21T09:42:41.414Z,11.27
2023-01-21T09:45:45.389Z,11.88
2023-01-21T09:48:50.682Z,10.50
2023-01-21T09:52:00.602Z,11.85
2023-01-21T09:55:04.452Z,12.40
2023-01-21T09:58:19.821Z,11.63
2023-01-21T10:01:29.047Z,11.07
2023-01-21T10:04:41.519Z,12.30
2023-01-21T10:07:54.039Z,12.43
2023-01-21T10:11:03.030Z,11.02
2023-01-21T10:17:25.641Z,11.52
2023-01-21T10:20:31.492Z,10.63
2023-01-21T10:23:38.201Z,11.65
2023-01-21T10:26:43.521Z,10.98
2023-01-21T10:29:50.660Z,11.27
2023-01-21T10:32:55.059Z,11.55
2023-01-21T10:36:20.892Z,11.77
2023-01-21T10:39:37.366Z,11.85
2023-01-21T10:42:51.527Z,12.88
2023-01-21T10:46:02.762Z,12.95
2023-01-21T10:49:18.288Z,11.48
2023-01-21T10:52:29.809Z,13.20
2023-01-21T10:55:43.444Z,12.10
2023-01-21T10:58:49.100Z,11.88
2023-01-21T11:02:02.366Z,12.43
2023-01-21T11:05:06.284Z,11.35
2023-01-21T11:08:14.942Z,12.13
2023-01-21T11:11:24.607Z,11.95
2023-01-21T11:14:26.653Z,13.00
2023-01-21T11:17:33.204Z,10.63
2023-01-21T11:20:39.642Z,12.75
2023-01-21T11:23:41.479Z,10.63
2023-01-21T11:26:51.148Z,12.77
2023-01-21T11:29:52.932Z,11.15
2023-01-21T11:33:12.998Z,10.75
2023-01-21T11:36:16.775Z,11.05
2023-01-21T11:39:23.715Z,11.30
2023-01-21T11:42:26.142Z,11.48
2023-01-21T11:45:30.485Z,10.25
2023-01-21T11:48:33.896Z,11.82
2023-01-21T11:51:38.045Z,10.75
2023-01-21T11:54:42.350Z,11.50
2023-01-21T11:57:50.493Z,10.30
2023-01-21T12:00:55.753Z,12.63
2023-01-21T12:04:01.266Z,16.25
2023-01-21T12:07:05.480Z,22.38
2023-01-21T12:10:20.572Z,16.20
2023-01-21T12:13:33.663Z,16.35
2023-01-21T12:16:38.240Z,19.20
2023-01-21T12:19:55.144Z,10.50
2023-01-21T12:23:11.004Z,12.57
2023-01-21T12:26:28.314Z,10.98
2023-01-21T12:29:42.540Z,12.57
2023-01-21T12:32:48.783Z,11.43
2023-01-21T12:35:57.921Z,10.02
2023-01-21T12:39:21.452Z,11.02
2023-01-21T12:42:30.298Z,12.02
2023-01-21T12:45:39.776Z,9.38
2023-01-21T12:48:47.358Z,10.50
2023-01-21T12:51:59.993Z,9.82
2023-01-21T12:55:10.808Z,10.38
2023-01-21T12:58:18.162Z,9.48
2023-01-21T13:01:44.239Z,10.18
2023-01-21T13:04:54.600Z,10.63
2023-01-21T13:08:11.598Z,11.52
2023-01-21T13:11:19.209Z,9.20
2023-01-21T13:14:28.742Z,9.13
2023-01-21T13:17:35.137Z,8.70
2023-01-21T13:20:44.339Z,8.95
2023-01-21T13:23:54.477Z,9.80
2023-01-21T13:27:06.227Z,10.23
2023-01-21T13:30:19.796Z,9.77
2023-01-21T13:33:34.409Z,10.85
2023-01-21T13:36:52.004Z,9.65
2023-01-21T13:40:18.896Z,10.75
2023-01-21T13:43:39.530Z,12.55
2023-01-21T13:46:51.972Z,11.65
2023-01-21T13:50:08.797Z,10.18
2023-01-21T13:53:26.648Z,10.80
2023-01-21T13:56:52.337Z,9.82
2023-01-21T13:59:59.987Z,9.20
2023-01-21T14:03:13.191Z,10.00
2023-01-21T14:06:21.807Z,10.55
2023-01-21T14:09:27.599Z,9.77
2023-01-21T14:12:48.753Z,10.15
2023-01-21T14:16:19.884Z,10.43
2023-01-21T14:20:05.278Z,10.40
2023-01-21T14:23:32.715Z,10.07
2023-01-21T14:26:57.297Z,9.90
2023-01-21T14:33:35.616Z,8.50
2023-01-21T14:36:44.976Z,8.63
2023-01-21T14:39:54.593Z,7.22
2023-01-21T14:42:57.063Z,7.90
2023-01-21T14:46:00.766Z,7.78
2023-01-21T14:49:06.819Z,9.02
2023-01-21T14:52:13.616Z,9.80
2023-01-21T14:55:27.679Z,8.43
2023-01-21T14:58:29.860Z,8.52
2023-01-21T15:01:37.465Z,7.78
2023-01-21T15:04:53.031Z,7.63
2023-01-21T15:08:05.828Z,6.78
2023-01-21T15:11:17.532Z,7.55
2023-01-21T15:14:23.073Z,6.53
2023-01-21T15:17:45.016Z,7.93
2023-01-21T15:20:51.283Z,7.50
2023-01-21T15:24:13.180Z,6.40
2023-01-21T15:27:18.147Z,6.38
2023-01-21T15:30:27.410Z,7.03
2023-01-21T15:33:30.592Z,7.63
2023-01-21T15:36:42.789Z,7.25
2023-01-21T15:39:45.159Z,6.60
2023-01-21T15:42:54.874Z,6.10
2023-01-21T15:46:10.161Z,6.10
2023-01-21T15:49:28.368Z,6.10
2023-01-21T15:52:43.821Z,6.57
2023-01-21T15:56:05.986Z,5.28
2023-01-21T15:59:23.261Z,7.15
2023-01-21T16:02:28.081Z,6.20
2023-01-21T16:05:39.326Z,6.75
2023-01-21T16:09:03.051Z,6.55
2023-01-21T16:12:17.712Z,6.68
2023-01-21T16:15:28.814Z,8.30
2023-01-21T16:18:37.995Z,13.10
2023-01-21T16:21:44.197Z,14.20
2023-01-21T16:24:51.523Z,8.55
2023-01-21T16:27:55.405Z,8.73
2023-01-21T16:30:59.788Z,8.18
2023-01-21T16:34:02.002Z,9.18
2023-01-21T16:37:05.773Z,8.20
2023-01-21T16:40:27.579Z,8.18
2023-01-21T16:43:29.717Z,8.27
2023-01-21T16:46:34.942Z,7.80
2023-01-21T16:49:37.390Z,8.48
2023-01-21T16:52:39.449Z,8.15
2023-01-21T16:55:45.708Z,6.72
2023-01-21T16:58:47.823Z,8.07
2023-01-21T17:01:50.829Z,6.95
2023-01-21T17:04:55.514Z,11.18
2023-01-21T17:07:59.853Z,9.95
2023-01-21T17:11:07.496Z,7.20
2023-01-21T17:14:10.809Z,7.00
2023-01-21T17:17:23.724Z,7.55
2023-01-21T17:20:39.231Z,9.20
2023-01-21T17:23:47.456Z,9.05
2023-01-21T17:26:54.507Z,10.07
2023-01-21T17:30:19.268Z,9.38
2023-01-21T17:33:28.717Z,9.60
2023-01-21T17:36:35.949Z,9.25
2023-01-21T17:39:59.806Z,9.82
2023-01-21T17:43:21.139Z,10.98
2023-01-21T17:46:24.320Z,8.65
2023-01-21T17:49:26.940Z,8.45
2023-01-21T17:52:29.947Z,10.40
2023-01-21T17:55:34.238Z,8.55
2023-01-21T17:58:49.384Z,9.60
2023-01-21T18:01:52.110Z,8.70
2023-01-21T18:04:55.043Z,9.48
2023-01-21T18:07:58.004Z,11.55
2023-01-21T18:10:59.830Z,9.95
2023-01-21T18:14:03.171Z,8.90
2023-01-21T18:17:06.702Z,8.52
2023-01-21T18:20:16.754Z,8.82
2023-01-21T18:23:19.589Z,9.18
2023-01-21T18:26:28.726Z,8.50
2023-01-21T18:29:32.128Z,8.50
2023-01-21T18:32:42.670Z,8.15
2023-01-21T18:35:48.029Z,7.97
2023-01-21T18:38:51.041Z,8.00
2023-01-21T18:41:53.675Z,8.50
2023-01-21T18:44:57.547Z,8.38
2023-01-21T18:48:00.180Z,8.98
2023-01-21T18:51:02.766Z,8.23
2023-01-21T18:54:05.661Z,9.20
2023-01-21T18:57:11.991Z,7.82
2023-01-21T19:00:26.589Z,8.38
2023-01-21T19:03:29.275Z,9.95
2023-01-21T19:06:32.312Z,9.30
2023-01-21T19:09:34.938Z,8.65
2023-01-21T19:12:36.936Z,9.27
2023-01-21T19:15:40.912Z,8.85
2023-01-21T19:18:43.557Z,9.68
2023-01-21T19:21:46.478Z,10.65
2023-01-21T19:24:49.287Z,9.55
2023-01-21T19:27:53.744Z,9.82
2023-01-21T19:30:58.272Z,10.00
2023-01-21T19:34:00.594Z,9.82
2023-01-21T19:37:03.478Z,9.30
2023-01-21T19:40:13.499Z,9.70
2023-01-21T19:43:17.635Z,9.35
2023-01-21T19:46:23.012Z,9.57
2023-01-21T19:49:25.558Z,9.40
2023-01-21T19:52:28.451Z,9.85
2023-01-21T19:55:34.811Z,10.35
2023-01-21T19:58:39.354Z,9.27
2023-01-21T20:01:45.244Z,10.35
2023-01-21T20:04:47.997Z,10.60
2023-01-21T20:07:51.096Z,9.98
2023-01-21T20:10:54.124Z,10.63
2023-01-21T20:13:57.015Z,9.93
2023-01-21T20:17:02.105Z,10.27
2023-01-21T20:20:14.627Z,9.95
2023-01-21T20:23:17.741Z,9.75
2023-01-21T20:26:24.769Z,10.65
2023-01-21T20:29:27.574Z,11.95
2023-01-21T20:32:32.001Z,12.20
2023-01-21T20:35:34.988Z,11.00
2023-01-21T20:38:39.470Z,13.75
2023-01-21T20:41:42.157Z,13.40
2023-01-21T20:44:45.322Z,9.88
2023-01-21T20:47:52.024Z,11.07
2023-01-21T20:50:55.299Z,10.98
2023-01-21T20:54:01.437Z,9.93
2023-01-21T20:57:08.549Z,8.93
2023-01-21T21:00:16.023Z,9.15
2023-01-21T21:03:20.233Z,8.85
2023-01-21T21:06:26.419Z,9.32
2023-01-21T21:09:28.618Z,9.50
2023-01-21T21:12:30.800Z,9.80
2023-01-21T21:15:35.246Z,9.98
2023-01-21T21:18:39.464Z,9.32
2023-01-21T21:21:42.862Z,10.10
2023-01-21T21:24:45.250Z,9.65
2023-01-21T21:27:48.593Z,9.82
2023-01-21T21:30:52.088Z,10.18
2023-01-21T21:33:56.606Z,9.60
2023-01-21T21:36:59.254Z,9.85
2023-01-21T21:40:01.864Z,9.65
2023-01-21T21:43:04.470Z,10.23
2023-01-21T21:46:07.839Z,9.10
2023-01-21T21:49:11.930Z,12.98
2023-01-21T21:52:14.066Z,13.55
2023-01-21T21:55:16.323Z,12.85
2023-01-21T21:58:18.749Z,10.02
2023-01-21T22:01:23.282Z,10.73
2023-01-21T22:04:26.935Z,12.80
2023-01-21T22:07:29.462Z,12.77
2023-01-21T22:10:31.300Z,13.70
2023-01-21T22:13:35.442Z,11.73
2023-01-21T22:16:37.232Z,10.65
2023-01-21T22:19:40.426Z,9.70
2023-01-21T22:22:42.149Z,10.77
2023-01-21T22:25:43.923Z,12.70
2023-01-21T22:28:46.083Z,11.43
2023-01-21T22:31:47.950Z,10.57
2023-01-21T22:34:51.112Z,10.35
2023-01-21T22:37:52.902Z,10.23
2023-01-21T22:40:55.214Z,10.40
2023-01-21T22:43:57.001Z,10.88
2023-01-21T22:46:58.790Z,11.35
2023-01-21T22:50:01.904Z,11.82
2023-01-21T22:53:03.666Z,12.13
2023-01-21T22:56:06.296Z,11.35
2023-01-21T22:59:08.058Z,10.77
2023-01-21T23:02:09.786Z,11.13
2023-01-21T23:05:13.120Z,10.50
2023-01-21T23:08:16.176Z,11.55
2023-01-21T23:11:19.532Z,13.75
2023-01-21T23:14:21.347Z,13.43
2023-01-21T23:17:23.120Z,12.75
2023-01-21T23:20:26.313Z,11.25
2023-01-21T23:23:30.094Z,10.85
2023-01-21T23:26:31.967Z,10.73
2023-01-21T23:29:33.725Z,10.10
2023-01-21T23:32:35.538Z,11.30
2023-01-21T23:35:38.678Z,11.27
2023-01-21T23:38:41.369Z,10.63
2023-01-21T23:41:43.165Z,11.43
2023-01-21T23:44:44.937Z,11.80
2023-01-21T23:47:46.689Z,11.05
2023-01-21T23:50:50.242Z,10.95
2023-01-21T23:53:52.004Z,11.77
2023-01-21T23:56:55.410Z,12.90
2023-01-21T23:59:57.252Z,11.45
